createdAt,value
2018-05-31T00:01:28.806Z,2.90
2018-05-31T00:03:57.831Z,3.40
2018-05-31T00:06:26.458Z,2.97
2018-05-31T00:08:55.044Z,3.30
2018-05-31T00:11:24.354Z,2.90
2018-05-31T00:13:53.720Z,2.90
2018-05-31T00:16:22.452Z,3.05
2018-05-31T00:18:51.507Z,2.83
2018-05-31T00:21:20.175Z,2.95
2018-05-31T00:23:48.738Z,3.15
2018-05-31T00:26:17.397Z,2.92
2018-05-31T00:28:48.968Z,3.08
2018-05-31T00:31:21.325Z,2.97
2018-05-31T00:36:28.417Z,2.87
2018-05-31T00:39:11.741Z,2.80
2018-05-31T00:41:42.730Z,3.12
2018-05-31T00:44:15.632Z,2.78
2018-05-31T00:46:57.097Z,2.70
2018-05-31T00:52:13.847Z,3.33
2018-05-31T01:00:45.201Z,2.97
2018-05-31T01:24:05.709Z,3.12
2018-05-31T01:29:29.375Z,3.10
2018-05-31T01:32:04.618Z,3.05
2018-05-31T01:37:35.036Z,3.25
2018-05-31T01:43:00.534Z,3.03
2018-05-31T01:45:34.206Z,3.25
2018-05-31T01:48:18.686Z,3.33
2018-05-31T01:56:24.189Z,3.10
2018-05-31T01:59:03.020Z,3.25
2018-05-31T02:01:35.184Z,3.10
2018-05-31T02:04:12.796Z,2.92
2018-05-31T02:06:47.003Z,3.62
2018-05-31T02:09:30.023Z,3.50
2018-05-31T02:15:00.331Z,3.00
2018-05-31T02:17:49.702Z,3.10
2018-05-31T02:20:24.480Z,3.45
2018-05-31T02:22:54.978Z,3.50
2018-05-31T02:25:25.238Z,3.45
2018-05-31T02:27:53.900Z,3.33
2018-05-31T02:30:24.493Z,3.50
2018-05-31T02:32:53.958Z,3.70
2018-05-31T02:35:23.834Z,3.40
2018-05-31T02:37:54.219Z,3.80
2018-05-31T02:40:24.622Z,3.85
2018-05-31T02:42:53.265Z,3.62
2018-05-31T02:45:21.936Z,3.47
2018-05-31T02:47:57.624Z,3.50
2018-05-31T02:50:26.235Z,4.05
2018-05-31T02:52:55.628Z,4.00
2018-05-31T02:55:25.042Z,3.72
2018-05-31T02:57:58.026Z,3.72
2018-05-31T03:00:28.943Z,3.60
2018-05-31T03:02:58.509Z,3.70
2018-05-31T03:05:28.402Z,4.00
2018-05-31T03:07:57.022Z,3.70
2018-05-31T03:10:25.655Z,4.07
2018-05-31T03:12:55.440Z,3.92
2018-05-31T03:15:25.869Z,4.05
2018-05-31T03:17:58.477Z,3.83
2018-05-31T03:20:27.173Z,4.10
2018-05-31T03:22:56.581Z,4.03
2018-05-31T03:25:27.317Z,3.97
2018-05-31T03:27:57.339Z,3.90
2018-05-31T03:30:26.623Z,3.90
2018-05-31T03:32:55.232Z,3.72
2018-05-31T03:35:23.869Z,4.10
2018-05-31T03:37:52.445Z,3.72
2018-05-31T03:40:21.225Z,3.97
2018-05-31T03:42:49.976Z,4.22
2018-05-31T03:45:18.606Z,4.22
2018-05-31T03:47:48.739Z,4.03
2018-05-31T03:50:17.237Z,4.00
2018-05-31T03:52:46.246Z,3.90
2018-05-31T03:55:14.839Z,3.78
2018-05-31T03:57:44.234Z,3.85
2018-05-31T04:00:16.722Z,3.80
2018-05-31T04:02:47.023Z,3.97
2018-05-31T04:05:18.018Z,3.30
2018-05-31T04:07:49.589Z,3.60
2018-05-31T04:10:24.707Z,4.03
2018-05-31T04:12:55.047Z,3.80
2018-05-31T04:15:24.502Z,4.00
2018-05-31T04:17:55.332Z,3.62
2018-05-31T04:23:05.836Z,4.03
2018-05-31T04:25:36.203Z,4.22
2018-05-31T04:28:09.799Z,4.32
2018-05-31T04:30:53.206Z,3.72
2018-05-31T04:33:25.315Z,4.20
2018-05-31T04:35:59.005Z,3.80
2018-05-31T04:38:31.381Z,4.82
2018-05-31T04:41:09.620Z,4.60
2018-05-31T04:43:42.758Z,4.07
2018-05-31T04:46:16.415Z,4.80
2018-05-31T04:54:28.604Z,3.60
2018-05-31T05:02:44.301Z,3.58
2018-05-31T05:05:21.125Z,3.83
2018-05-31T05:13:35.246Z,3.80
2018-05-31T05:27:14.003Z,3.80
2018-05-31T05:29:49.261Z,3.78
2018-05-31T05:32:29.413Z,3.35
2018-05-31T05:35:06.116Z,3.50
2018-05-31T05:37:41.117Z,3.47
2018-05-31T05:40:11.954Z,3.58
2018-05-31T05:42:44.393Z,3.62
2018-05-31T05:45:18.771Z,3.72
2018-05-31T05:47:53.556Z,3.42
2018-05-31T06:20:10.840Z,3.53
2018-05-31T06:22:51.363Z,3.40
2018-05-31T06:25:34.297Z,3.58
2018-05-31T06:28:04.619Z,3.35
2018-05-31T06:30:38.658Z,3.22
2018-05-31T06:35:49.754Z,3.47
2018-05-31T06:38:34.325Z,2.92
2018-05-31T06:41:04.123Z,3.30
2018-05-31T06:43:46.517Z,3.10
2018-05-31T06:49:06.357Z,2.90
2018-05-31T06:59:41.873Z,3.03
2018-05-31T07:02:24.090Z,3.10
2018-05-31T07:04:54.952Z,2.80
2018-05-31T07:07:24.543Z,2.85
2018-05-31T07:09:54.047Z,3.45
2018-05-31T07:12:22.775Z,3.03
2018-05-31T07:14:52.177Z,3.05
2018-05-31T07:17:20.792Z,3.10
2018-05-31T07:19:52.231Z,3.03
2018-05-31T07:24:55.006Z,2.90
2018-05-31T07:27:23.618Z,3.08
2018-05-31T07:29:52.991Z,3.15
2018-05-31T07:32:21.535Z,3.10
2018-05-31T07:34:50.184Z,2.90
2018-05-31T07:37:18.980Z,2.90
2018-05-31T07:39:47.597Z,2.70
2018-05-31T07:42:16.941Z,3.20
2018-05-31T07:44:45.771Z,2.80
2018-05-31T07:47:16.053Z,2.80
2018-05-31T07:49:45.313Z,2.80
2018-05-31T07:52:14.453Z,2.67
2018-05-31T07:54:42.978Z,2.70
2018-05-31T07:57:11.499Z,2.90
2018-05-31T07:59:40.244Z,2.90
2018-05-31T08:02:08.745Z,2.75
2018-05-31T08:04:37.357Z,2.85
2018-05-31T08:07:06.817Z,2.72
2018-05-31T08:09:35.385Z,2.62
2018-05-31T08:12:04.090Z,2.67
2018-05-31T08:14:32.829Z,2.72
2018-05-31T08:17:03.144Z,2.67
2018-05-31T08:19:32.710Z,2.72
2018-05-31T08:22:01.277Z,2.60
2018-05-31T08:24:30.839Z,2.78
2018-05-31T08:26:59.334Z,2.70
2018-05-31T08:29:28.913Z,2.42
2018-05-31T08:31:57.360Z,2.47
2018-05-31T08:34:26.585Z,2.53
2018-05-31T08:36:55.035Z,2.50
2018-05-31T08:39:23.455Z,2.80
2018-05-31T08:41:51.887Z,2.70
2018-05-31T08:44:20.292Z,2.42
2018-05-31T08:46:48.718Z,2.35
2018-05-31T08:49:17.129Z,2.47
2018-05-31T08:51:45.564Z,2.37
2018-05-31T08:54:14.821Z,2.40
2018-05-31T08:56:43.258Z,2.30
2018-05-31T08:59:12.430Z,2.40
2018-05-31T09:01:40.871Z,2.25
2018-05-31T09:04:09.273Z,2.25
2018-05-31T09:06:38.709Z,2.50
2018-05-31T09:09:07.134Z,2.40
2018-05-31T09:11:35.573Z,2.62
2018-05-31T09:14:03.987Z,2.08
2018-05-31T09:16:33.209Z,2.37
2018-05-31T09:19:01.783Z,2.15
2018-05-31T09:21:30.346Z,2.28
2018-05-31T09:23:59.144Z,2.20
2018-05-31T09:26:28.428Z,2.20
2018-05-31T09:28:57.009Z,2.30
2018-05-31T09:31:25.559Z,2.30
2018-05-31T09:33:53.989Z,2.20
2018-05-31T09:36:22.568Z,2.30
2018-05-31T09:38:51.069Z,2.45
2018-05-31T09:41:20.363Z,2.47
2018-05-31T09:43:49.735Z,3.30
2018-05-31T09:46:18.249Z,2.60
2018-05-31T09:48:46.811Z,3.03
2018-05-31T09:51:15.325Z,3.22
2018-05-31T09:53:43.817Z,2.75
2018-05-31T09:56:12.370Z,3.30
2018-05-31T09:58:40.904Z,2.78
2018-05-31T10:01:09.407Z,3.03
2018-05-31T10:03:38.638Z,3.10
2018-05-31T10:06:07.244Z,3.35
2018-05-31T10:08:35.713Z,3.30
2018-05-31T10:11:04.163Z,3.28
2018-05-31T10:13:33.832Z,3.30
2018-05-31T10:16:02.315Z,3.45
2018-05-31T10:18:30.830Z,3.00
2018-05-31T10:20:59.364Z,2.83
2018-05-31T10:23:27.806Z,3.10
2018-05-31T10:25:56.374Z,3.15
2018-05-31T10:28:24.870Z,3.00
2018-05-31T10:30:54.321Z,2.95
2018-05-31T10:33:22.906Z,3.17
2018-05-31T10:35:51.372Z,3.00
2018-05-31T10:38:20.622Z,3.42
2018-05-31T10:40:49.158Z,3.00
2018-05-31T10:43:19.953Z,3.12
2018-05-31T10:45:48.515Z,3.30
2018-05-31T10:48:17.019Z,3.03
2018-05-31T10:50:45.544Z,3.10
2018-05-31T10:53:14.071Z,3.40
2018-05-31T10:55:42.619Z,3.17
2018-05-31T10:58:12.043Z,3.25
2018-05-31T11:00:40.566Z,3.25
2018-05-31T11:03:09.069Z,3.50
2018-05-31T11:05:37.594Z,3.20
2018-05-31T11:08:06.975Z,3.30
2018-05-31T11:10:35.453Z,3.10
2018-05-31T11:13:04.059Z,3.10
2018-05-31T11:15:32.537Z,3.50
2018-05-31T11:18:01.062Z,3.12
2018-05-31T11:20:29.601Z,2.92
2018-05-31T11:22:58.070Z,3.30
2018-05-31T11:25:26.555Z,3.17
2018-05-31T11:27:55.068Z,3.28
2018-05-31T11:30:23.560Z,3.20
2018-05-31T11:32:52.051Z,3.20
2018-05-31T11:35:20.575Z,3.62
2018-05-31T11:37:49.144Z,3.65
2018-05-31T11:40:18.596Z,3.75
2018-05-31T11:42:47.131Z,3.87
2018-05-31T11:45:16.941Z,3.78
2018-05-31T11:47:46.949Z,3.62
2018-05-31T11:50:15.456Z,3.87
2018-05-31T11:52:47.643Z,4.10
2018-05-31T11:55:16.104Z,3.80
2018-05-31T11:57:45.341Z,4.53
2018-05-31T12:00:13.859Z,4.70
2018-05-31T12:02:42.375Z,5.27
2018-05-31T12:05:10.864Z,6.35
2018-05-31T12:07:40.130Z,5.30
2018-05-31T12:10:08.584Z,4.62
2018-05-31T12:12:37.049Z,3.47
2018-05-31T12:15:06.222Z,4.35
2018-05-31T12:17:34.839Z,4.72
2018-05-31T12:20:03.243Z,6.07
2018-05-31T12:22:31.718Z,5.60
2018-05-31T12:25:00.892Z,5.80
2018-05-31T12:27:29.351Z,9.30
2018-05-31T12:29:57.760Z,9.75
2018-05-31T12:32:26.244Z,5.47
2018-05-31T12:34:54.655Z,6.30
2018-05-31T12:37:23.932Z,7.43
2018-05-31T12:39:52.334Z,6.40
2018-05-31T12:42:21.542Z,6.75
2018-05-31T12:44:50.724Z,6.12
2018-05-31T12:47:19.963Z,6.07
2018-05-31T12:49:48.354Z,6.50
2018-05-31T12:52:16.818Z,6.22
2018-05-31T12:54:45.984Z,5.93
2018-05-31T12:57:14.411Z,6.03
2018-05-31T12:59:42.824Z,5.97
2018-05-31T13:02:11.258Z,6.47
2018-05-31T13:04:40.437Z,6.55
2018-05-31T13:07:08.858Z,6.62
2018-05-31T13:09:38.061Z,6.70
2018-05-31T13:12:07.233Z,7.40
2018-05-31T13:14:35.692Z,6.47
2018-05-31T13:17:04.157Z,6.65
2018-05-31T13:19:32.609Z,7.35
2018-05-31T13:22:01.020Z,7.50
2018-05-31T13:24:29.479Z,7.43
2018-05-31T13:26:58.661Z,7.33
2018-05-31T13:29:27.986Z,8.13
2018-05-31T13:31:57.167Z,7.53
2018-05-31T13:34:28.535Z,7.65
2018-05-31T13:36:57.135Z,7.30
2018-05-31T13:39:25.648Z,7.57
2018-05-31T13:41:54.186Z,7.35
2018-05-31T13:44:23.452Z,7.40
2018-05-31T13:46:51.936Z,8.30
2018-05-31T13:49:20.455Z,9.27
2018-05-31T13:51:48.866Z,10.50
2018-05-31T13:54:17.382Z,8.52
2018-05-31T13:56:45.903Z,9.73
2018-05-31T13:59:14.376Z,9.10
2018-05-31T14:01:42.845Z,8.50
2018-05-31T14:04:11.340Z,7.57
2018-05-31T14:06:39.777Z,7.80
2018-05-31T14:09:08.312Z,7.35
2018-05-31T14:11:36.795Z,8.00
2018-05-31T14:14:05.247Z,6.10
2018-05-31T14:16:33.701Z,5.60
2018-05-31T14:19:02.918Z,5.10
2018-05-31T14:21:32.104Z,4.28
2018-05-31T14:24:01.338Z,3.95
2018-05-31T14:26:29.788Z,4.20
2018-05-31T14:28:58.266Z,4.12
2018-05-31T14:31:26.686Z,3.90
2018-05-31T14:33:55.147Z,5.50
2018-05-31T14:36:24.331Z,3.58
2018-05-31T14:38:52.778Z,3.30
2018-05-31T14:41:21.209Z,3.30
2018-05-31T14:43:49.652Z,3.30
2018-05-31T14:46:18.082Z,3.65
2018-05-31T14:48:46.545Z,3.58
2018-05-31T14:51:14.958Z,3.90
2018-05-31T14:53:44.175Z,3.55
2018-05-31T14:56:12.638Z,3.75
2018-05-31T14:58:41.862Z,3.78
2018-05-31T15:01:11.042Z,3.45
2018-05-31T15:03:39.494Z,3.60
2018-05-31T15:06:07.921Z,3.45
2018-05-31T15:08:37.131Z,2.92
2018-05-31T15:11:06.338Z,2.97
2018-05-31T15:13:34.810Z,2.75
2018-05-31T15:16:04.025Z,2.80
2018-05-31T15:18:33.309Z,2.80
2018-05-31T15:21:01.727Z,2.70
2018-05-31T15:23:30.181Z,2.72
2018-05-31T15:25:58.601Z,2.78
2018-05-31T15:28:27.076Z,2.65
2018-05-31T15:30:55.495Z,2.47
2018-05-31T15:33:23.965Z,2.45
2018-05-31T15:35:52.421Z,2.10
2018-05-31T15:38:21.613Z,2.22
2018-05-31T15:40:50.833Z,3.10
2018-05-31T15:43:19.284Z,2.78
2018-05-31T15:45:47.736Z,2.42
2018-05-31T15:48:16.161Z,2.50
2018-05-31T15:50:45.375Z,2.70
2018-05-31T15:53:14.559Z,2.58
2018-05-31T15:55:42.998Z,2.30
2018-05-31T15:58:11.443Z,2.53
2018-05-31T16:00:40.660Z,2.70
2018-05-31T16:03:09.837Z,2.67
2018-05-31T16:05:38.298Z,2.40
2018-05-31T16:08:06.730Z,2.53
2018-05-31T16:10:35.187Z,2.65
2018-05-31T16:13:03.610Z,3.35
2018-05-31T16:15:32.063Z,3.00
2018-05-31T16:18:01.371Z,2.50
2018-05-31T16:20:30.619Z,3.00
2018-05-31T16:22:59.051Z,2.62
2018-05-31T16:25:27.507Z,2.67
2018-05-31T16:27:55.926Z,2.60
2018-05-31T16:30:25.144Z,2.45
2018-05-31T16:32:54.315Z,2.40
2018-05-31T16:35:22.775Z,2.37
2018-05-31T16:37:51.227Z,2.50
2018-05-31T16:40:19.682Z,2.60
2018-05-31T16:42:48.132Z,3.12
2018-05-31T16:45:16.610Z,2.62
2018-05-31T16:47:45.074Z,2.63
2018-05-31T16:50:13.621Z,2.50
2018-05-31T16:52:42.032Z,2.60
2018-05-31T16:55:11.228Z,2.60
2018-05-31T16:57:39.660Z,2.62
2018-05-31T17:00:08.127Z,2.40
2018-05-31T17:02:36.583Z,2.63
2018-05-31T17:05:05.801Z,3.25
2018-05-31T17:07:34.265Z,4.47
2018-05-31T17:10:03.535Z,2.87
2018-05-31T17:12:31.980Z,2.53
2018-05-31T17:15:00.507Z,2.80
2018-05-31T17:17:28.888Z,2.50
2018-05-31T17:19:57.346Z,2.53
2018-05-31T17:22:25.826Z,2.40
2018-05-31T17:24:54.272Z,2.70
2018-05-31T17:27:23.616Z,2.58
2018-05-31T17:29:52.091Z,2.50
2018-05-31T17:32:20.504Z,2.47
2018-05-31T17:34:48.917Z,2.53
2018-05-31T17:37:17.415Z,2.62
2018-05-31T17:39:45.818Z,2.80
2018-05-31T17:42:14.306Z,2.75
2018-05-31T17:44:42.717Z,2.57
2018-05-31T17:47:11.145Z,3.08
2018-05-31T17:49:39.547Z,2.80
2018-05-31T17:52:09.560Z,2.63
2018-05-31T17:54:38.748Z,2.80
2018-05-31T17:57:07.202Z,2.62
2018-05-31T17:59:35.623Z,2.95
2018-05-31T18:02:04.078Z,3.05
2018-05-31T18:04:32.515Z,2.90
2018-05-31T18:07:01.712Z,2.70
2018-05-31T18:09:30.903Z,2.90
2018-05-31T18:12:00.111Z,2.95
2018-05-31T18:14:29.292Z,2.97
2018-05-31T18:16:57.752Z,3.17
2018-05-31T18:19:26.170Z,3.10
2018-05-31T18:21:54.608Z,3.17
2018-05-31T18:24:23.025Z,3.20
2018-05-31T18:26:51.469Z,3.17
2018-05-31T18:29:19.888Z,2.87
2018-05-31T18:31:48.318Z,3.30
2018-05-31T18:34:16.738Z,3.28
2018-05-31T18:36:45.228Z,2.80
2018-05-31T18:39:13.646Z,3.10
2018-05-31T18:41:42.143Z,3.10
2018-05-31T18:44:11.328Z,3.25
2018-05-31T18:46:39.775Z,3.30
2018-05-31T18:49:08.236Z,3.20
2018-05-31T18:51:36.676Z,3.30
2018-05-31T18:54:05.120Z,3.20
2018-05-31T18:56:33.584Z,3.50
2018-05-31T18:59:02.008Z,4.05
2018-05-31T19:01:30.478Z,3.72
2018-05-31T19:03:58.922Z,3.62
2018-05-31T19:06:27.362Z,3.73
2018-05-31T19:08:55.779Z,4.03
2018-05-31T19:11:24.222Z,5.82
2018-05-31T19:13:58.494Z,4.30
2018-05-31T19:16:27.706Z,3.70
2018-05-31T19:19:01.553Z,3.85
2018-05-31T19:21:30.030Z,4.00
2018-05-31T19:27:02.661Z,4.25
2018-05-31T19:29:32.102Z,4.45
2018-05-31T19:32:00.859Z,4.05
2018-05-31T19:34:31.540Z,4.47
2018-05-31T19:37:06.456Z,4.15
2018-05-31T19:39:34.916Z,4.30
2018-05-31T19:42:03.464Z,4.32
2018-05-31T19:44:37.485Z,4.35
2018-05-31T19:47:05.944Z,4.30
2018-05-31T19:49:35.125Z,4.37
2018-05-31T19:52:09.228Z,4.00
2018-05-31T19:54:38.415Z,4.40
2018-05-31T19:57:06.865Z,4.43
2018-05-31T19:59:40.596Z,4.50
2018-05-31T20:02:14.679Z,4.50
2018-05-31T20:04:43.481Z,4.40
2018-05-31T20:07:12.215Z,4.22
2018-05-31T20:09:40.883Z,4.50
2018-05-31T20:12:09.406Z,4.32
2018-05-31T20:14:38.467Z,4.35
2018-05-31T20:22:12.125Z,4.75
2018-05-31T20:24:41.505Z,4.30
2018-05-31T20:27:09.934Z,4.15
2018-05-31T20:29:38.446Z,4.00
2018-05-31T20:32:06.940Z,4.07
2018-05-31T20:34:35.948Z,4.25
2018-05-31T20:37:04.638Z,4.75
2018-05-31T20:39:33.996Z,5.10
2018-05-31T20:42:02.551Z,5.03
2018-05-31T20:44:30.991Z,4.87
2018-05-31T20:46:59.533Z,4.55
2018-05-31T20:49:27.994Z,4.10
2018-05-31T20:51:56.437Z,4.32
2018-05-31T20:54:24.883Z,4.68
2018-05-31T20:56:53.294Z,4.57
2018-05-31T20:59:22.491Z,4.60
2018-05-31T21:01:51.666Z,4.35
2018-05-31T21:04:20.090Z,4.40
2018-05-31T21:06:48.510Z,4.40
2018-05-31T21:09:16.935Z,4.30
2018-05-31T21:11:46.211Z,4.22
2018-05-31T21:14:14.662Z,4.47
2018-05-31T21:16:43.079Z,4.37
2018-05-31T21:19:11.531Z,4.30
2018-05-31T21:21:39.949Z,4.10
2018-05-31T21:24:08.383Z,4.45
2018-05-31T21:26:36.970Z,4.35
2018-05-31T21:29:05.444Z,4.13
2018-05-31T21:31:34.635Z,4.45
2018-05-31T21:34:03.932Z,4.30
2018-05-31T21:36:33.135Z,3.97
2018-05-31T21:39:01.584Z,3.75
2018-05-31T21:41:30.001Z,3.80
2018-05-31T21:43:58.551Z,4.40
2018-05-31T21:46:28.910Z,4.53
2018-05-31T21:48:57.652Z,4.50
2018-05-31T21:51:26.267Z,1.77
2018-05-31T21:53:58.414Z,0.90
2018-05-31T21:56:29.044Z,1.00
2018-05-31T21:58:58.524Z,1.10
2018-05-31T22:01:27.715Z,0.93
2018-05-31T22:03:57.766Z,1.20
